Time;durP1;ratioP1;P1;durP2;ratioP2;P2;SDS_P1;SDS_P2;PMS_P1;PMS_P2;Temp;Humidity;BMP_temperature;BMP_pressure;BME280_temperature;BME280_humidity;BME280_pressure;Samples;Min_cycle;Max_cycle;Signal;HPM_P1;HPM_P2
2022/03/13 00:00:55;;;;;;;13.10;11.73;;;10.80;36.40;;;-142.21;37.00;112049.66;6039157;23;20487;-77
2022/03/13 00:03:26;;;;;;;13.73;11.83;;;10.70;36.70;;;-142.21;37.01;112049.66;6040676;23;20398;-79
2022/03/13 00:05:54;;;;;;;13.10;11.47;;;10.70;36.70;;;-142.21;36.99;112049.66;6040034;23;20416;-77
2022/03/13 00:08:27;;;;;;;13.13;11.53;;;10.60;37.40;;;-142.21;36.40;112049.66;6041085;23;20406;-76
2022/03/13 00:10:57;;;;;;;13.47;11.70;;;10.60;36.70;;;-142.21;36.85;112049.66;6015146;23;20398;-78
2022/03/13 00:13:31;;;;;;;13.13;11.77;;;10.70;36.50;;;-142.21;37.50;112049.66;6040519;23;20441;-78
2022/03/13 00:16:03;;;;;;;14.47;11.83;;;10.60;36.50;;;-142.21;37.18;112049.66;6040197;23;20701;-77
2022/03/13 00:18:35;;;;;;;14.17;12.53;;;10.60;36.70;;;-142.21;36.69;112049.66;6040486;23;20474;-79
2022/03/13 00:21:04;;;;;;;15.83;11.97;;;10.60;36.80;;;-142.21;37.71;112049.66;6039417;23;20399;-77
2022/03/13 00:23:31;;;;;;;15.23;12.63;;;10.60;36.60;;;-142.21;36.98;112049.66;6040223;23;20467;-77
2022/03/13 00:25:58;;;;;;;17.77;13.30;;;10.50;36.40;;;-142.21;36.51;112049.66;6039483;23;20406;-79
2022/03/13 00:28:25;;;;;;;13.77;12.33;;;10.40;36.60;;;-142.21;36.79;112049.66;6040482;23;20437;-77
2022/03/13 00:30:53;;;;;;;16.60;12.43;;;10.50;36.80;;;-142.21;37.18;112049.66;6040501;23;20492;-77
2022/03/13 00:33:20;;;;;;;16.40;12.67;;;10.50;36.70;;;-142.21;37.06;112049.66;6039080;23;20488;-78
2022/03/13 00:35:49;;;;;;;14.50;11.67;;;10.50;36.80;;;-142.21;37.08;112049.66;6039920;23;20419;-79
2022/03/13 00:38:19;;;;;;;17.07;12.60;;;10.40;36.90;;;-142.21;38.24;112049.66;6039508;23;20418;-79
2022/03/13 00:40:50;;;;;;;14.67;12.23;;;10.40;37.10;;;-142.21;36.99;112049.66;6039947;23;20414;-79
2022/03/13 00:43:17;;;;;;;14.80;12.47;;;10.30;37.50;;;-142.21;37.02;112049.66;6014264;23;20494;-77
2022/03/13 00:45:44;;;;;;;16.07;12.30;;;10.30;37.00;;;-142.21;37.42;112049.66;6040220;23;20473;-77
2022/03/13 00:48:12;;;;;;;15.93;12.43;;;10.30;37.00;;;-142.21;38.23;112049.66;6039816;23;20411;-78
2022/03/13 00:50:40;;;;;;;14.60;12.33;;;10.10;36.80;;;-142.21;37.10;112049.66;6039687;23;20446;-78
2022/03/13 00:53:09;;;;;;;14.00;11.60;;;10.10;37.10;;;-142.21;37.10;112049.66;6039768;23;20446;-76
2022/03/13 00:55:36;;;;;;;14.83;12.10;;;10.10;37.00;;;-142.21;36.60;112049.66;6039350;23;20414;-78
2022/03/13 00:58:04;;;;;;;15.97;12.20;;;10.20;37.30;;;-142.21;36.92;112049.66;6040188;23;20421;-77
2022/03/13 01:00:33;;;;;;;15.03;12.30;;;10.20;36.90;;;-142.21;36.73;112049.66;6039186;23;20438;-78
2022/03/13 01:03:00;;;;;;;13.63;11.27;;;10.40;37.00;;;-142.21;36.95;112049.66;6040197;23;20409;-78
2022/03/13 01:05:29;;;;;;;16.73;12.20;;;10.40;36.50;;;-142.21;36.88;112049.66;6039286;23;20506;-78
2022/03/13 01:07:59;;;;;;;14.13;12.13;;;10.50;36.60;;;-142.21;37.47;112049.66;6039921;23;20411;-78
2022/03/13 01:10:28;;;;;;;14.83;13.33;;;10.60;36.90;;;-142.21;37.78;112049.66;6040347;23;20445;-78
2022/03/13 01:12:55;;;;;;;14.80;12.40;;;10.70;36.90;;;-142.21;38.13;112049.66;6039812;23;20414;-80
2022/03/13 01:15:22;;;;;;;16.70;12.97;;;10.70;36.70;;;-142.21;38.44;112049.66;6040113;23;20453;-79
2022/03/13 01:17:50;;;;;;;15.43;13.10;;;10.80;37.00;;;-142.21;38.67;112049.66;6014418;23;20412;-77
2022/03/13 01:20:21;;;;;;;14.93;13.27;;;10.80;37.10;;;-142.21;38.60;112049.66;6040356;23;20500;-78
2022/03/13 01:22:49;;;;;;;16.80;13.00;;;10.70;37.00;;;-142.21;38.53;112049.66;6039068;23;20394;-78
2022/03/13 01:25:16;;;;;;;18.30;13.50;;;10.70;37.30;;;-142.21;39.52;112049.66;6040490;23;20461;-77
2022/03/13 01:27:45;;;;;;;15.20;11.63;;;10.70;37.20;;;-142.21;39.39;112049.66;6040745;23;20446;-77
2022/03/13 01:30:14;;;;;;;15.00;12.27;;;10.70;37.50;;;-142.21;39.58;112049.66;6041294;23;20402;-77
2022/03/13 01:32:41;;;;;;;14.07;12.13;;;10.60;38.20;;;-142.21;40.31;112049.66;6040496;23;20466;-77
2022/03/13 01:35:10;;;;;;;13.73;12.17;;;10.60;37.70;;;-142.21;40.23;112049.66;6038835;23;20548;-76
2022/03/13 01:37:40;;;;;;;13.30;11.90;;;10.50;37.90;;;-142.21;40.31;112049.66;6038983;23;20420;-77
2022/03/13 01:40:11;;;;;;;15.73;13.37;;;10.40;38.10;;;-142.21;40.87;112049.66;6038750;23;20394;-77
2022/03/13 01:42:41;;;;;;;17.03;12.67;;;10.30;38.30;;;-142.21;40.47;112049.66;6014313;23;20410;-77
2022/03/13 01:45:15;;;;;;;13.67;11.93;;;10.30;38.10;;;-142.21;40.66;112049.66;6039403;23;20403;-77
2022/03/13 01:47:44;;;;;;;14.23;11.50;;;10.20;38.30;;;-142.21;40.67;112049.66;6039809;23;20493;-75
2022/03/13 01:50:13;;;;;;;14.40;12.70;;;10.20;38.30;;;-142.21;40.84;112049.66;6038251;23;20457;-77
2022/03/13 01:52:46;;;;;;;14.67;12.97;;;10.20;38.30;;;-142.21;40.76;112049.66;6014636;23;20418;-78
2022/03/13 01:55:14;;;;;;;16.60;12.33;;;10.10;38.20;;;-142.21;41.03;112049.66;6038359;23;20939;-78
2022/03/13 01:57:41;;;;;;;13.90;12.00;;;10.10;38.00;;;-142.21;40.85;112049.66;6039327;23;20452;-77
2022/03/13 02:00:12;;;;;;;14.37;12.73;;;10.10;38.30;;;-142.21;40.37;112049.66;6038842;23;20505;-78
2022/03/13 02:02:47;;;;;;;17.90;12.60;;;10.10;38.50;;;-142.21;40.33;112049.66;6039360;23;20401;-77
2022/03/13 02:05:29;;;;;;;14.80;13.20;;;10.10;38.30;;;-142.21;41.28;112049.66;6038555;23;20422;-78
2022/03/13 02:07:57;;;;;;;16.17;12.20;;;10.00;38.90;;;-142.21;40.96;112049.66;6039840;23;20750;-76
2022/03/13 02:10:24;;;;;;;13.97;12.43;;;10.00;38.90;;;-142.21;41.08;112049.66;6038559;23;20434;-77
2022/03/13 02:12:51;;;;;;;13.93;12.43;;;10.00;38.80;;;-142.21;40.66;112049.66;5990438;23;20446;-78
2022/03/13 02:15:20;;;;;;;14.40;12.93;;;10.00;38.80;;;-142.21;41.39;112049.66;6039220;23;20460;-77
2022/03/13 02:17:47;;;;;;;15.33;12.60;;;10.00;39.20;;;-142.21;41.48;112049.66;6039400;23;20416;-78
2022/03/13 02:20:23;;;;;;;16.63;12.43;;;10.00;39.20;;;-142.21;41.38;112049.66;6039867;23;20421;-76
2022/03/13 02:22:53;;;;;;;16.97;12.47;;;10.00;38.90;;;-142.21;41.41;112049.66;6039831;23;20742;-77
2022/03/13 02:25:24;;;;;;;14.13;12.00;;;10.00;38.70;;;-142.21;41.42;112049.66;6039251;23;20430;-77
2022/03/13 02:27:52;;;;;;;14.00;12.43;;;10.10;38.80;;;-142.21;41.08;112049.66;6039121;23;20887;-77
2022/03/13 02:30:26;;;;;;;14.13;12.67;;;10.00;38.50;;;-142.21;41.97;112049.66;6039115;23;20410;-79
2022/03/13 02:32:54;;;;;;;16.90;13.10;;;9.90;39.70;;;-142.21;41.57;112049.66;6038333;23;20383;-78
2022/03/13 02:35:22;;;;;;;14.83;12.77;;;10.00;38.80;;;-142.21;41.78;112049.66;6038967;23;20460;-78
2022/03/13 02:37:51;;;;;;;14.40;12.53;;;9.90;39.60;;;-142.21;42.07;112049.66;6038834;23;20735;-77
2022/03/13 02:40:22;;;;;;;14.43;12.93;;;9.90;39.70;;;-142.21;41.71;112049.66;6039151;23;20449;-79
2022/03/13 02:42:51;;;;;;;14.90;13.33;;;9.90;39.90;;;-142.21;42.01;112049.66;6038342;23;20848;-77
2022/03/13 02:45:30;;;;;;;14.73;12.80;;;9.80;40.00;;;-142.21;41.94;112049.66;6039607;23;20413;-77
2022/03/13 02:47:58;;;;;;;16.83;12.30;;;9.70;40.00;;;-142.21;41.89;112049.66;6037665;23;20458;-78
2022/03/13 02:50:25;;;;;;;16.97;13.00;;;9.80;39.70;;;-142.21;41.61;112049.66;6038674;23;20477;-77
2022/03/13 02:52:54;;;;;;;16.63;12.10;;;9.80;39.90;;;-142.21;42.01;112049.66;6014271;23;20416;-77
2022/03/13 02:55:22;;;;;;;15.07;13.27;;;9.70;40.50;;;-142.21;41.97;112049.66;6039046;23;20485;-78
2022/03/13 02:57:49;;;;;;;14.93;12.83;;;9.70;40.70;;;-142.21;41.83;112049.66;6039168;23;20410;-77
2022/03/13 03:00:17;;;;;;;15.97;13.23;;;9.70;40.80;;;-142.21;41.65;112049.66;6039245;23;20467;-77
2022/03/13 03:02:45;;;;;;;17.70;12.83;;;9.70;40.20;;;-142.21;42.24;112049.66;5989446;23;20414;-77
2022/03/13 03:05:12;;;;;;;17.67;12.60;;;9.60;40.20;;;-142.21;41.95;112049.66;6038680;23;20445;-78
2022/03/13 03:07:41;;;;;;;15.17;12.77;;;9.60;40.30;;;-142.21;41.77;112049.66;6038996;23;20493;-77
2022/03/13 03:10:13;;;;;;;16.80;12.93;;;9.60;40.30;;;-142.21;42.53;112049.66;6013449;23;20415;-76
2022/03/13 03:12:40;;;;;;;16.50;13.00;;;9.60;40.40;;;-142.21;41.76;112049.66;6039030;23;20390;-78
2022/03/13 03:15:08;;;;;;;16.00;13.57;;;9.60;40.50;;;-142.21;42.58;112049.66;6037879;23;20454;-77
2022/03/13 03:17:36;;;;;;;15.13;13.30;;;9.40;40.60;;;-142.21;42.78;112049.66;6038708;23;20789;-78
2022/03/13 03:20:05;;;;;;;16.37;13.20;;;9.30;40.80;;;-142.21;42.86;112049.66;6038555;23;20923;-77
2022/03/13 03:22:32;;;;;;;14.53;13.00;;;9.30;40.80;;;-142.21;42.61;112049.66;6038661;23;20904;-78
2022/03/13 03:25:00;;;;;;;15.47;13.87;;;9.20;41.00;;;-142.21;44.01;112049.66;6038424;23;20434;-77
2022/03/13 03:27:31;;;;;;;14.20;12.73;;;9.00;42.10;;;-142.21;44.03;112049.66;6038117;23;20910;-78
2022/03/13 03:29:58;;;;;;;16.63;13.73;;;8.90;42.40;;;-142.21;44.28;112049.66;6015734;23;20433;-77
2022/03/13 03:32:25;;;;;;;16.90;13.27;;;8.80;42.40;;;-142.21;44.38;112049.66;6039960;23;20412;-76
2022/03/13 03:34:54;;;;;;;14.83;12.13;;;8.70;42.30;;;-142.21;44.78;112049.66;6040405;23;20959;-77
2022/03/13 03:37:21;;;;;;;14.23;12.73;;;8.70;42.10;;;-142.21;44.78;112049.66;6040609;23;20788;-76
2022/03/13 03:39:48;;;;;;;15.90;13.07;;;8.70;42.00;;;-142.21;44.66;112049.66;6040722;23;20410;-77
2022/03/13 03:42:15;;;;;;;13.73;12.27;;;8.60;42.20;;;-142.21;44.65;112049.66;6015924;23;20415;-78
2022/03/13 03:44:44;;;;;;;15.33;13.63;;;8.50;42.00;;;-142.21;44.85;112049.66;6039734;23;20982;-78
2022/03/13 03:47:11;;;;;;;15.13;12.43;;;8.70;42.30;;;-142.21;44.93;112049.66;6040032;23;20492;-78
2022/03/13 03:49:39;;;;;;;15.47;12.87;;;8.70;42.10;;;-142.21;45.15;112049.66;6039600;23;20486;-78
2022/03/13 03:52:07;;;;;;;14.80;13.03;;;8.60;41.90;;;-142.21;44.62;112049.66;6040802;23;20731;-78
2022/03/13 03:54:35;;;;;;;20.60;13.87;;;8.60;41.90;;;-142.21;45.44;112049.66;6039721;23;20537;-77
2022/03/13 03:57:02;;;;;;;15.10;12.83;;;8.60;42.80;;;-142.21;46.64;112049.66;6014045;23;20421;-77
2022/03/13 03:59:32;;;;;;;15.20;12.97;;;8.50;42.20;;;-142.21;47.38;112049.66;6040275;23;20500;-77
2022/03/13 04:02:00;;;;;;;15.73;13.80;;;8.50;42.70;;;-142.21;47.99;112049.66;6039488;23;20433;-77
2022/03/13 04:04:29;;;;;;;14.20;12.60;;;8.40;44.00;;;-142.21;48.37;112049.66;6040817;23;20413;-76
2022/03/13 04:06:56;;;;;;;16.07;13.40;;;8.30;43.40;;;-142.21;47.81;112049.66;6039830;23;20493;-77
2022/03/13 04:09:23;;;;;;;15.10;13.07;;;8.20;43.70;;;-142.21;48.34;112049.66;6040119;23;20485;-76
2022/03/13 04:11:52;;;;;;;15.50;12.93;;;8.10;43.50;;;-142.21;48.26;112049.66;6040084;23;20834;-77
2022/03/13 04:14:20;;;;;;;16.97;14.00;;;8.10;43.90;;;-142.21;49.45;112049.66;6040792;23;20457;-77
2022/03/13 04:16:48;;;;;;;17.23;12.43;;;8.10;43.50;;;-142.21;50.46;112049.66;6039956;23;20419;-76
2022/03/13 04:19:17;;;;;;;15.47;13.07;;;8.00;44.00;;;-142.21;50.33;112049.66;6039421;23;20452;-78
2022/03/13 04:21:45;;;;;;;17.17;13.63;;;7.90;44.40;;;-142.21;49.23;112049.66;6040142;23;20861;-77
2022/03/13 04:24:13;;;;;;;16.70;14.50;;;7.80;44.40;;;-142.21;49.72;112049.66;6039558;23;20751;-77
2022/03/13 04:26:41;;;;;;;18.07;13.03;;;7.80;44.50;;;-142.21;50.10;112049.66;6040430;23;20414;-78
2022/03/13 04:29:10;;;;;;;17.43;13.23;;;7.80;44.70;;;-142.21;50.89;112049.66;6014518;23;20414;-76
2022/03/13 04:31:38;;;;;;;19.10;13.90;;;7.80;44.50;;;-142.21;52.16;112049.66;6039588;23;20417;-77
2022/03/13 04:34:05;;;;;;;17.10;13.27;;;7.80;44.40;;;-142.21;53.41;112049.66;6040210;23;20485;-77
2022/03/13 04:36:37;;;;;;;17.67;14.03;;;7.80;44.90;;;-142.21;54.26;112049.66;6039281;23;20493;-77
2022/03/13 04:39:06;;;;;;;14.77;12.90;;;7.70;45.20;;;-142.21;54.70;112049.66;6040629;23;20456;-77
2022/03/13 04:41:34;;;;;;;18.87;13.43;;;7.60;45.40;;;-142.21;54.28;112049.66;6039139;23;20410;-78
2022/03/13 04:44:01;;;;;;;14.80;12.73;;;7.50;45.40;;;-142.21;54.51;112049.66;6039992;23;20796;-78
2022/03/13 04:46:29;;;;;;;18.38;14.15;;;7.40;45.40;;;-142.21;54.80;112049.66;6039387;23;20422;-74
2022/03/13 04:48:57;;;;;;;14.87;13.27;;;7.40;45.30;;;-142.21;53.96;112049.66;5990724;23;20563;-79
2022/03/13 04:51:24;;;;;;;15.20;13.43;;;7.40;45.60;;;-142.21;53.27;112049.66;6039642;23;20766;-76
2022/03/13 04:53:53;;;;;;;15.73;13.00;;;7.40;45.60;;;-142.21;53.92;112049.66;6015523;23;20414;-76
2022/03/13 04:56:20;;;;;;;14.63;12.33;;;7.30;46.00;;;-142.21;56.66;112049.66;6040227;23;20414;-77
2022/03/13 04:58:47;;;;;;;15.83;12.70;;;7.30;46.20;;;-142.21;56.44;112049.66;6039135;23;20421;-76
2022/03/13 05:01:14;;;;;;;16.27;13.40;;;7.30;46.40;;;-142.21;56.24;112049.66;6040336;23;20398;-76
2022/03/13 05:03:41;;;;;;;17.10;13.27;;;7.30;46.00;;;-142.21;56.80;112049.66;6014932;23;20218;-78
2022/03/13 05:06:09;;;;;;;15.10;12.52;;;7.30;46.00;;;-142.21;57.44;112049.66;6039411;23;20178;-78
2022/03/13 05:08:36;;;;;;;14.35;12.73;;;7.30;45.80;;;-142.21;57.79;112049.66;6039648;23;20185;-75
2022/03/13 05:11:05;;;;;;;16.15;13.70;;;7.30;46.00;;;-142.21;57.39;112049.66;6039333;23;20185;-77
2022/03/13 05:13:33;;;;;;;16.47;12.90;;;7.30;46.00;;;-142.21;57.83;112049.66;6039480;23;20182;-77
2022/03/13 05:16:00;;;;;;;18.33;13.57;;;7.20;46.00;;;-142.21;59.19;112049.66;6038732;23;20533;-77
2022/03/13 05:18:29;;;;;;;18.43;13.73;;;7.10;46.00;;;-142.21;58.29;112049.66;6039464;23;20415;-77
2022/03/13 05:20:56;;;;;;;16.00;13.85;;;7.10;46.10;;;-142.21;59.07;112049.66;6039432;23;20725;-78
2022/03/13 05:23:24;;;;;;;17.02;13.20;;;7.10;46.00;;;-142.21;58.70;112049.66;6039691;23;20205;-78
2022/03/13 05:25:52;;;;;;;16.10;13.38;;;7.00;46.30;;;-142.21;59.61;112049.66;6014558;23;20183;-79
2022/03/13 05:28:20;;;;;;;17.50;14.13;;;7.00;46.80;;;-142.21;59.09;112049.66;6013794;23;20265;-78
2022/03/13 05:30:47;;;;;;;19.27;14.60;;;6.90;46.60;;;-142.21;57.86;112049.66;6039740;23;20236;-77
2022/03/13 05:33:15;;;;;;;18.57;14.30;;;7.00;46.80;;;-142.21;57.50;112049.66;6038742;23;20438;-78
2022/03/13 05:35:42;;;;;;;18.00;14.97;;;6.80;46.50;;;-142.21;58.02;112049.66;6039505;23;20457;-78
2022/03/13 05:38:09;;;;;;;19.17;14.45;;;6.80;46.80;;;-142.21;58.44;112049.66;6039408;23;20445;-77
2022/03/13 05:40:40;;;;;;;19.23;15.35;;;6.80;46.90;;;-142.21;58.40;112049.66;6040209;23;20214;-77
2022/03/13 05:43:08;;;;;;;18.60;15.02;;;6.70;47.20;;;-142.21;58.07;112049.66;6039527;23;20172;-77
2022/03/13 05:45:38;;;;;;;17.08;13.65;;;6.70;47.30;;;-142.21;58.65;112049.66;6039449;23;20220;-76
2022/03/13 05:48:11;;;;;;;16.60;13.68;;;6.70;47.10;;;-142.21;59.38;112049.66;6039320;23;20611;-76
2022/03/13 05:50:39;;;;;;;17.07;13.67;;;6.70;47.00;;;-142.21;57.79;112049.66;6038638;23;20599;-77
2022/03/13 05:53:06;;;;;;;15.60;13.37;;;6.80;46.90;;;-142.21;59.15;112049.66;6039220;23;20407;-76
2022/03/13 05:55:33;;;;;;;16.03;12.40;;;6.90;46.80;;;-142.21;57.82;112049.66;6038555;23;20951;-76
2022/03/13 05:58:02;;;;;;;16.85;13.05;;;6.80;46.90;;;-142.21;58.14;112049.66;6039237;23;20414;-77
2022/03/13 06:00:32;;;;;;;16.02;13.52;;;6.80;47.00;;;-142.21;57.53;112049.66;6039013;23;20568;-76
2022/03/13 06:03:02;;;;;;;16.97;12.40;;;6.70;46.90;;;-142.21;57.36;112049.66;6039658;23;20647;-77
2022/03/13 06:05:34;;;;;;;16.50;12.35;;;6.70;47.00;;;-142.21;57.03;112049.66;6038930;23;20414;-77
2022/03/13 06:08:01;;;;;;;15.38;13.27;;;6.70;47.10;;;-142.21;57.77;112049.66;6039054;23;20174;-78
2022/03/13 06:10:29;;;;;;;19.42;14.15;;;6.60;47.00;;;-142.21;59.20;112049.66;6038781;23;20186;-77
2022/03/13 06:12:56;;;;;;;17.08;13.00;;;6.70;47.20;;;-142.21;60.14;112049.66;6038787;23;20254;-76
2022/03/13 06:15:23;;;;;;;23.02;14.25;;;6.70;47.40;;;-142.21;61.48;112049.66;6042384;23;20284;-76
2022/03/13 06:17:53;;;;;;;19.57;13.63;;;6.80;47.20;;;-142.21;62.76;112049.66;6044629;23;20262;-77
2022/03/13 06:20:22;;;;;;;15.50;13.25;;;6.80;47.10;;;-142.21;62.15;112049.66;6041533;23;20426;-78
2022/03/13 06:22:49;;;;;;;16.40;13.15;;;6.80;47.40;;;-142.21;60.67;112049.66;6038628;23;20182;-77
2022/03/13 06:25:18;;;;;;;17.73;13.93;;;6.80;47.60;;;-142.21;60.14;112049.66;6013950;23;20702;-77
2022/03/13 06:27:46;;;;;;;16.33;13.73;;;6.80;47.90;;;-142.21;61.34;112049.66;6038978;23;20398;-76
2022/03/13 06:30:16;;;;;;;17.40;13.83;;;6.90;48.10;;;-142.21;63.13;112049.66;6039276;23;20478;-77
2022/03/13 06:32:47;;;;;;;16.87;13.80;;;7.00;48.00;;;-142.21;63.11;112049.66;6039396;23;20482;-78
2022/03/13 06:35:17;;;;;;;16.13;13.63;;;7.20;47.80;;;-142.21;64.62;112049.66;6039554;23;20450;-77
2022/03/13 06:37:46;;;;;;;14.43;12.90;;;7.50;47.70;;;-142.21;64.66;112049.66;6039259;23;20410;-78
2022/03/13 06:40:17;;;;;;;15.57;13.17;;;7.70;47.10;;;-142.21;65.63;112049.66;6038468;23;20418;-77
2022/03/13 06:42:47;;;;;;;15.80;13.63;;;7.80;47.00;;;-142.21;65.58;112049.66;6039617;23;20391;-76
2022/03/13 06:45:15;;;;;;;15.97;13.70;;;7.90;47.00;;;-142.21;65.57;112049.66;6038203;23;20702;-79
2022/03/13 06:47:46;;;;;;;17.73;13.10;;;8.00;47.00;;;-142.21;64.09;112049.66;6039179;23;20441;-77
2022/03/13 06:50:16;;;;;;;15.93;14.07;;;8.00;47.20;;;-142.21;63.80;112049.66;5908523;23;20769;-76
2022/03/13 06:52:45;;;;;;;16.77;14.37;;;8.00;46.90;;;-142.21;63.41;112049.66;6011451;23;20421;-78
2022/03/13 06:55:14;;;;;;;18.30;13.53;;;8.00;47.00;;;-142.21;63.05;112049.66;6009774;23;20451;-78
2022/03/13 06:57:41;;;;;;;18.17;15.43;;;8.10;46.90;;;-142.21;64.36;112049.66;6010455;23;20625;-78
2022/03/13 07:00:10;;;;;;;19.17;14.23;;;8.20;46.70;;;-142.21;64.12;112049.66;5985983;23;20486;-77
2022/03/13 07:02:37;;;;;;;18.70;15.73;;;8.40;46.90;;;-142.21;63.31;112049.66;6010694;23;20439;-77
2022/03/13 07:05:06;;;;;;;18.00;14.70;;;8.40;46.70;;;-142.21;64.14;112049.66;6011008;23;20413;-78
2022/03/13 07:07:33;;;;;;;16.77;14.83;;;8.80;46.90;;;-142.21;63.08;112049.66;6010003;23;20449;-77
2022/03/13 07:10:02;;;;;;;17.97;15.63;;;9.00;46.40;;;-142.21;63.15;112049.66;6010062;23;20468;-77
2022/03/13 07:12:29;;;;;;;16.60;14.30;;;9.30;45.90;;;-142.21;63.14;112049.66;6009874;23;20419;-77
2022/03/13 07:14:57;;;;;;;16.70;14.90;;;9.60;46.00;;;-142.21;60.73;112049.66;6010442;23;20447;-79
2022/03/13 07:17:25;;;;;;;17.37;15.47;;;10.00;45.20;;;-142.21;58.36;112049.66;6009693;23;20422;-77
2022/03/13 07:19:52;;;;;;;17.83;15.37;;;10.60;44.20;;;-142.21;56.87;112049.66;6010828;23;20410;-78
2022/03/13 07:22:19;;;;;;;16.63;14.87;;;11.10;43.00;;;-142.21;55.25;112049.66;6010412;23;20741;-78
2022/03/13 07:24:46;;;;;;;17.87;15.17;;;11.60;42.00;;;-142.21;58.81;112049.66;6009462;23;20431;-77
2022/03/13 07:27:15;;;;;;;16.97;15.17;;;12.00;41.60;;;-142.21;56.40;112049.66;5986036;23;20931;-78
2022/03/13 07:29:43;;;;;;;17.50;15.70;;;12.00;41.00;;;-142.21;54.79;112049.66;6009732;23;20452;-77
2022/03/13 07:32:10;;;;;;;18.73;16.77;;;12.10;41.00;;;-142.21;55.66;112049.66;6010174;23;20415;-78
2022/03/13 07:34:38;;;;;;;17.53;14.67;;;12.40;40.90;;;-142.21;53.94;112049.66;6010142;23;20755;-77
2022/03/13 07:37:06;;;;;;;18.63;16.20;;;12.90;40.40;;;-142.21;54.06;112049.66;6010592;23;20430;-77
2022/03/13 07:39:33;;;;;;;18.57;16.57;;;12.90;39.30;;;-142.21;51.39;112049.66;6010273;23;20703;-78
2022/03/13 07:42:00;;;;;;;18.33;16.17;;;12.40;39.60;;;-142.21;52.04;112049.66;5961186;23;20437;-78
2022/03/13 07:44:29;;;;;;;18.30;16.37;;;12.40;40.30;;;-142.21;49.47;112049.66;6010312;23;20502;-78
2022/03/13 07:46:56;;;;;;;19.50;16.70;;;12.50;39.70;;;-142.21;48.96;112049.66;6009364;23;20489;-77
2022/03/13 07:49:23;;;;;;;18.83;16.83;;;12.50;39.10;;;-142.21;47.94;112049.66;6012938;23;20770;-78
2022/03/13 07:51:50;;;;;;;18.73;16.23;;;12.30;39.00;;;-142.21;47.54;112049.66;6037793;23;20398;-77
2022/03/13 07:54:20;;;;;;;19.13;16.23;;;12.10;39.30;;;-142.21;46.87;112049.66;6038763;23;20441;-76
2022/03/13 07:56:47;;;;;;;19.97;17.17;;;11.80;39.50;;;-142.21;46.47;112049.66;6038584;23;20478;-77
2022/03/13 07:59:15;;;;;;;18.27;16.27;;;11.80;39.70;;;-142.21;45.57;112049.66;6038186;23;20414;-78
2022/03/13 08:01:43;;;;;;;17.33;15.23;;;12.00;39.90;;;-142.21;47.24;112049.66;6013754;23;20437;-76
2022/03/13 08:04:10;;;;;;;19.90;16.53;;;12.10;39.50;;;-142.21;46.39;112049.66;5988407;23;20466;-76
2022/03/13 08:06:39;;;;;;;17.50;15.60;;;12.30;39.40;;;-142.21;46.16;112049.66;6038010;23;20892;-78
2022/03/13 08:09:08;;;;;;;20.67;16.77;;;12.40;39.70;;;-142.21;45.79;112049.66;6038383;23;20497;-78
2022/03/13 08:11:36;;;;;;;18.73;16.50;;;12.40;39.30;;;-142.21;46.11;112049.66;6038695;23;20414;-77
2022/03/13 08:14:03;;;;;;;18.87;16.60;;;12.50;39.30;;;-142.21;45.68;112049.66;6037653;23;20414;-78
2022/03/13 08:16:32;;;;;;;19.77;16.47;;;12.60;39.20;;;-142.21;45.58;112049.66;6038314;23;20452;-77
2022/03/13 08:19:01;;;;;;;19.57;17.40;;;12.70;39.40;;;-142.21;45.56;112049.66;6039991;23;20478;-79
2022/03/13 08:21:29;;;;;;;17.73;15.87;;;12.60;38.80;;;-142.21;46.27;112049.66;6039569;23;20470;-79
2022/03/13 08:23:56;;;;;;;18.63;16.53;;;12.70;39.20;;;-142.21;46.02;112049.66;6040319;23;20438;-79
2022/03/13 08:26:23;;;;;;;19.57;16.47;;;12.60;38.90;;;-142.21;45.93;112049.66;6039078;23;20413;-79
2022/03/13 08:28:52;;;;;;;18.13;15.90;;;12.60;39.30;;;-142.21;46.77;112049.66;6040126;23;20424;-77
2022/03/13 08:31:19;;;;;;;18.00;16.10;;;12.50;39.10;;;-142.21;45.32;112049.66;6039709;23;20509;-79
2022/03/13 08:33:46;;;;;;;18.33;16.30;;;12.40;39.60;;;-142.21;44.96;112049.66;6040363;23;20414;-79
2022/03/13 08:36:16;;;;;;;18.13;15.67;;;12.50;39.50;;;-142.21;45.81;112049.66;6039485;23;20449;-79
2022/03/13 08:38:43;;;;;;;18.70;16.13;;;12.70;39.70;;;-142.21;45.20;112049.66;6039906;23;20946;-78
2022/03/13 08:41:11;;;;;;;18.27;15.70;;;12.80;40.00;;;-142.21;44.78;112049.66;6040159;23;20405;-78
2022/03/13 08:43:38;;;;;;;17.87;15.97;;;13.10;39.40;;;-142.21;43.73;112049.66;6039276;23;20466;-79
2022/03/13 08:46:05;;;;;;;18.83;15.50;;;13.20;39.10;;;-142.21;46.27;112049.66;6039905;23;20419;-78
2022/03/13 08:48:33;;;;;;;18.27;16.20;;;13.30;39.10;;;-142.21;43.51;112049.66;6039210;23;20421;-80
2022/03/13 08:51:00;;;;;;;17.47;15.70;;;13.40;38.20;;;-142.21;43.71;112049.66;6016448;23;20446;-79
2022/03/13 08:53:29;;;;;;;17.07;15.27;;;13.70;38.50;;;-142.21;44.13;112049.66;6009922;23;20467;-79
2022/03/13 08:55:56;;;;;;;17.83;16.00;;;13.50;37.70;;;-142.21;43.34;112049.66;6011032;23;20507;-79
2022/03/13 08:58:24;;;;;;;18.30;16.03;;;13.60;38.00;;;-142.21;43.05;112049.66;6011368;23;20423;-79
2022/03/13 09:00:51;;;;;;;18.03;16.13;;;13.70;37.80;;;-142.21;43.50;112049.66;6010777;23;20426;-79
2022/03/13 09:03:19;;;;;;;18.57;16.67;;;14.00;37.80;;;-142.21;42.30;112049.66;6011285;23;20743;-78
2022/03/13 09:05:48;;;;;;;17.97;15.90;;;14.30;38.30;;;-142.21;42.01;112049.66;6009597;23;20408;-78
2022/03/13 09:08:17;;;;;;;18.97;16.63;;;14.90;36.60;;;-142.21;42.01;112049.66;6010604;23;20910;-77
2022/03/13 09:10:46;;;;;;;18.97;16.97;;;15.30;36.20;;;-142.21;40.61;112049.66;6010268;23;20472;-77
2022/03/13 09:13:14;;;;;;;17.47;15.67;;;16.30;36.30;;;-142.21;40.74;112049.66;6010663;23;20430;-79
2022/03/13 09:15:41;;;;;;;18.30;16.33;;;17.30;34.80;;;-142.21;40.89;112049.66;6010541;23;20460;-78
2022/03/13 09:18:08;;;;;;;20.03;16.27;;;18.60;33.70;;;-142.21;41.10;112049.66;6010454;23;20975;-76
2022/03/13 09:20:36;;;;;;;17.60;15.80;;;20.00;33.20;;;-142.21;40.21;112049.66;6010958;23;20265;-76
2022/03/13 09:23:03;;;;;;;19.37;17.37;;;21.50;31.00;;;-142.21;38.57;112049.66;6010326;23;20186;-77
2022/03/13 09:25:31;;;;;;;19.37;17.57;;;22.10;29.00;;;-142.21;38.84;112049.66;6010936;23;20205;-79
2022/03/13 09:28:00;;;;;;;18.47;16.77;;;22.80;28.90;;;-142.21;39.19;112049.66;5985491;23;20624;-78
2022/03/13 09:30:27;;;;;;;19.70;17.80;;;23.50;28.10;;;-142.21;37.13;112049.66;6011488;23;20242;-77
2022/03/13 09:32:54;;;;;;;18.33;16.73;;;24.30;28.00;;;-142.21;38.76;112049.66;6010128;23;20526;-76
2022/03/13 09:35:21;;;;;;;19.37;17.53;;;24.70;27.00;;;-142.21;37.76;112049.66;6010742;23;20182;-78
2022/03/13 09:37:50;;;;;;;19.40;17.70;;;25.60;27.10;;;-142.21;36.87;112049.66;6010152;23;20217;-78
2022/03/13 09:40:19;;;;;;;17.83;16.13;;;26.30;26.30;;;-142.21;37.49;112049.66;6009982;23;20700;-76
2022/03/13 09:42:48;;;;;;;17.70;16.10;;;26.90;25.80;;;-142.21;38.07;112049.66;6010849;23;20186;-77
2022/03/13 09:45:17;;;;;;;19.13;17.33;;;27.60;25.80;;;-142.21;36.17;112049.66;6009589;23;20526;-76
2022/03/13 09:47:44;;;;;;;19.67;17.87;;;28.30;24.80;;;-142.21;37.00;112049.66;6010645;23;20241;-78
2022/03/13 09:50:13;;;;;;;19.43;17.83;;;28.70;23.90;;;-142.21;36.33;112049.66;6021558;23;20206;-76
2022/03/13 09:52:42;;;;;;;18.90;17.23;;;29.00;23.90;;;-142.21;36.60;112049.66;6039267;23;20187;-77
2022/03/13 09:55:10;;;;;;;20.17;18.27;;;29.50;23.50;;;-142.21;37.28;112049.66;6038456;23;20239;-77